createdAt,value
2022-12-28T00:01:33.296Z,13.07
2022-12-28T00:04:03.471Z,17.00
2022-12-28T00:06:34.725Z,9.00
2022-12-28T00:09:05.532Z,9.37
2022-12-28T00:11:34.772Z,12.30
2022-12-28T00:14:04.369Z,11.40
2022-12-28T00:16:34.698Z,9.43
2022-12-28T00:19:06.201Z,11.53
2022-12-28T00:21:35.599Z,11.03
2022-12-28T00:24:07.373Z,11.77
2022-12-28T00:26:37.821Z,7.90
2022-12-28T00:29:07.044Z,9.10
2022-12-28T00:31:36.751Z,10.00
2022-12-28T00:34:06.368Z,16.17
2022-12-28T00:37:09.949Z,10.97
2022-12-28T00:39:26.460Z,10.23
2022-12-28T00:41:56.051Z,15.60
2022-12-28T00:44:25.456Z,11.90
2022-12-28T00:46:55.680Z,11.53
2022-12-28T00:49:25.052Z,15.60
2022-12-28T00:51:55.410Z,12.87
2022-12-28T00:54:27.215Z,13.13
2022-12-28T00:56:56.880Z,21.47
2022-12-28T00:59:27.759Z,13.20
2022-12-28T01:01:57.270Z,14.20
2022-12-28T01:04:27.028Z,13.33
2022-12-28T01:06:56.718Z,8.93
2022-12-28T01:09:27.024Z,12.47
2022-12-28T01:11:58.535Z,20.43
2022-12-28T01:14:27.943Z,16.27
2022-12-28T01:16:56.924Z,20.37
2022-12-28T01:19:27.108Z,12.67
2022-12-28T01:21:58.230Z,15.77
2022-12-28T01:24:29.261Z,6.93
2022-12-28T01:27:02.741Z,13.30
2022-12-28T01:29:34.363Z,15.40
2022-12-28T01:32:03.339Z,12.43
2022-12-28T01:34:32.520Z,9.27
2022-12-28T01:37:02.288Z,12.30
2022-12-28T01:39:33.448Z,8.10
2022-12-28T01:42:03.969Z,11.50
2022-12-28T01:44:43.070Z,7.23
2022-12-28T01:47:14.458Z,11.67
2022-12-28T01:49:46.601Z,7.57
2022-12-28T01:52:20.211Z,11.97
2022-12-28T01:54:54.000Z,9.00
2022-12-28T01:57:25.271Z,8.70
2022-12-28T01:59:58.010Z,9.33
2022-12-28T02:02:27.276Z,13.77
2022-12-28T02:04:56.886Z,13.30
2022-12-28T02:07:29.550Z,9.10
2022-12-28T02:10:42.410Z,11.20
2022-12-28T02:12:51.820Z,11.03
2022-12-28T02:15:23.340Z,7.63
2022-12-28T02:17:53.575Z,9.27
2022-12-28T02:20:23.804Z,10.37
2022-12-28T02:23:25.623Z,5.77
2022-12-28T02:26:40.119Z,5.70
2022-12-28T02:29:25.737Z,8.17
2022-12-28T02:32:06.530Z,10.00
2022-12-28T02:34:43.769Z,7.13
2022-12-28T02:37:18.696Z,16.13
2022-12-28T02:39:52.182Z,8.93
2022-12-28T02:42:24.085Z,21.20
2022-12-28T02:45:12.785Z,10.83
2022-12-28T02:48:02.403Z,15.40
2022-12-28T02:50:39.878Z,13.33
2022-12-28T02:53:34.238Z,17.13
2022-12-28T02:56:17.367Z,9.30
2022-12-28T02:59:17.542Z,13.93
2022-12-28T03:02:20.336Z,5.73
2022-12-28T03:04:58.030Z,15.20
2022-12-28T03:07:50.193Z,11.30
2022-12-28T03:10:23.169Z,12.10
2022-12-28T03:12:58.312Z,8.60
2022-12-28T03:15:32.652Z,12.10
2022-12-28T03:18:22.084Z,11.47
2022-12-28T03:21:10.877Z,4.03
2022-12-28T03:23:58.671Z,13.13
2022-12-28T03:26:47.562Z,5.23
2022-12-28T03:29:37.411Z,7.27
2022-12-28T03:32:07.773Z,11.73
2022-12-28T03:34:38.022Z,5.43
2022-12-28T03:37:14.733Z,4.10
2022-12-28T03:39:50.383Z,8.80
2022-12-28T03:42:44.122Z,6.47
2022-12-28T03:45:45.700Z,16.23
2022-12-28T03:48:10.983Z,13.03
2022-12-28T03:50:42.036Z,13.13
2022-12-28T03:53:13.232Z,16.30
2022-12-28T03:55:43.630Z,22.53
2022-12-28T03:58:13.381Z,11.57
2022-12-28T04:00:42.908Z,8.80
2022-12-28T04:03:12.343Z,12.80
2022-12-28T04:05:41.941Z,11.87
2022-12-28T04:08:14.546Z,10.17
2022-12-28T04:10:44.200Z,9.27
2022-12-28T04:13:13.918Z,16.30
2022-12-28T04:15:58.116Z,10.07
2022-12-28T04:18:27.385Z,11.10
2022-12-28T04:20:56.618Z,17.40
2022-12-28T04:23:28.063Z,17.27
2022-12-28T04:26:14.175Z,10.70
2022-12-28T04:28:45.435Z,14.67
2022-12-28T04:31:44.122Z,8.87
2022-12-28T04:34:16.262Z,12.53
2022-12-28T04:36:54.242Z,12.60
2022-12-28T04:39:26.590Z,13.23
2022-12-28T04:41:56.124Z,11.97
2022-12-28T04:44:25.707Z,11.23
2022-12-28T04:46:55.080Z,9.57
2022-12-28T04:49:24.367Z,9.60
2022-12-28T04:51:53.557Z,14.07
2022-12-28T04:54:22.892Z,11.90
2022-12-28T04:56:54.361Z,8.57
2022-12-28T04:59:23.987Z,6.77
2022-12-28T05:01:53.217Z,8.77
2022-12-28T05:04:22.773Z,12.50
2022-12-28T05:06:51.859Z,7.50
2022-12-28T05:09:21.319Z,10.53
2022-12-28T05:11:53.352Z,9.67
2022-12-28T05:14:24.076Z,12.33
2022-12-28T05:16:53.501Z,9.70
2022-12-28T05:19:23.187Z,11.30
2022-12-28T05:21:55.453Z,9.67
2022-12-28T05:24:25.026Z,7.83
2022-12-28T05:26:54.341Z,9.27
2022-12-28T05:29:25.347Z,12.47
2022-12-28T05:31:54.856Z,10.70
2022-12-28T05:34:24.647Z,9.17
2022-12-28T05:36:53.722Z,9.03
2022-12-28T05:39:23.061Z,7.73
2022-12-28T05:41:52.857Z,7.13
2022-12-28T05:44:22.354Z,10.77
2022-12-28T05:46:53.261Z,22.10
2022-12-28T05:49:22.789Z,10.23
2022-12-28T05:51:53.576Z,9.30
2022-12-28T05:54:23.157Z,10.83
2022-12-28T05:56:53.449Z,7.40
2022-12-28T05:59:22.943Z,7.60
2022-12-28T06:01:56.576Z,8.67
2022-12-28T06:04:26.938Z,11.33
2022-12-28T06:06:56.566Z,9.40
2022-12-28T06:09:26.167Z,8.13
2022-12-28T06:11:55.635Z,8.10
2022-12-28T06:14:24.926Z,10.03
2022-12-28T06:16:56.046Z,15.90
2022-12-28T06:19:25.509Z,9.50
2022-12-28T06:21:54.721Z,10.30
2022-12-28T06:24:23.900Z,16.47
2022-12-28T06:26:53.633Z,14.40
2022-12-28T06:29:23.184Z,7.23
2022-12-28T06:31:54.271Z,10.93
2022-12-28T06:34:25.333Z,4.93
2022-12-28T06:36:54.618Z,8.73
2022-12-28T06:39:23.859Z,7.57
2022-12-28T06:41:53.180Z,9.57
2022-12-28T06:44:22.762Z,2.57
2022-12-28T06:46:52.340Z,11.00
2022-12-28T06:49:21.569Z,8.17
2022-12-28T06:51:52.643Z,5.63
2022-12-28T06:54:22.622Z,7.37
2022-12-28T06:56:52.275Z,9.50
2022-12-28T06:59:21.571Z,10.40
2022-12-28T07:01:50.669Z,11.90
2022-12-28T07:04:20.352Z,12.87
2022-12-28T07:06:49.633Z,5.40
2022-12-28T07:09:22.900Z,20.47
2022-12-28T07:11:53.014Z,5.97
2022-12-28T07:14:22.575Z,7.40
2022-12-28T07:16:52.433Z,8.57
2022-12-28T07:19:21.591Z,15.93
2022-12-28T07:21:52.213Z,3.03
2022-12-28T07:24:23.822Z,5.43
2022-12-28T07:26:53.365Z,7.07
2022-12-28T07:29:22.910Z,6.00
2022-12-28T07:31:52.096Z,4.80
2022-12-28T07:34:21.324Z,10.03
2022-12-28T07:36:52.567Z,9.77
2022-12-28T07:39:23.542Z,18.73
2022-12-28T07:41:53.252Z,19.03
2022-12-28T07:44:27.975Z,13.13
2022-12-28T07:46:59.154Z,11.73
2022-12-28T07:49:28.479Z,4.63
2022-12-28T07:51:57.628Z,10.63
2022-12-28T07:54:28.556Z,3.63
2022-12-28T07:56:58.011Z,3.90
2022-12-28T07:59:31.254Z,6.03
2022-12-28T08:02:01.138Z,2.10
2022-12-28T08:04:30.592Z,3.67
2022-12-28T08:07:00.136Z,6.27
2022-12-28T08:09:30.771Z,6.07
2022-12-28T08:12:00.252Z,4.80
2022-12-28T08:14:29.636Z,8.87
2022-12-28T08:16:58.972Z,11.77
2022-12-28T08:19:28.372Z,6.53
2022-12-28T08:22:00.852Z,2.80
2022-12-28T08:24:31.383Z,6.13
2022-12-28T08:27:00.997Z,13.80
2022-12-28T08:29:29.838Z,6.60
2022-12-28T08:31:59.203Z,11.77
2022-12-28T08:34:28.480Z,5.63
2022-12-28T08:36:58.725Z,4.47
2022-12-28T08:39:28.124Z,9.97
2022-12-28T08:41:59.049Z,5.23
2022-12-28T08:44:28.636Z,13.10
2022-12-28T08:46:58.600Z,12.33
2022-12-28T08:49:28.606Z,7.57
2022-12-28T08:51:58.002Z,6.57
2022-12-28T08:54:27.200Z,5.93
2022-12-28T08:56:56.831Z,10.93
2022-12-28T08:59:27.772Z,7.53
2022-12-28T09:01:57.418Z,5.40
2022-12-28T09:04:26.445Z,10.10
2022-12-28T09:06:55.587Z,7.20
2022-12-28T09:09:24.797Z,23.03
2022-12-28T09:11:54.223Z,12.50
2022-12-28T09:14:24.604Z,12.87
2022-12-28T09:16:58.079Z,8.03
2022-12-28T09:19:27.463Z,1.90
2022-12-28T09:21:56.465Z,6.77
2022-12-28T09:24:25.594Z,4.77
2022-12-28T09:26:55.800Z,9.43
2022-12-28T09:29:25.364Z,3.80
2022-12-28T09:31:58.186Z,2.63
2022-12-28T09:34:37.352Z,5.70
2022-12-28T09:37:07.853Z,4.73
2022-12-28T09:39:37.483Z,7.57
2022-12-28T09:42:08.261Z,4.10
2022-12-28T09:44:53.963Z,6.37
2022-12-28T09:47:32.708Z,7.00
2022-12-28T09:50:19.376Z,8.83
2022-12-28T09:52:51.956Z,8.70
2022-12-28T09:55:22.083Z,13.63
2022-12-28T09:57:52.384Z,8.10
2022-12-28T10:00:22.877Z,8.40
2022-12-28T10:02:57.418Z,8.27
2022-12-28T10:05:27.520Z,7.80
2022-12-28T10:07:57.776Z,7.00
2022-12-28T10:10:28.118Z,4.67
2022-12-28T10:12:58.899Z,26.17
2022-12-28T10:15:30.035Z,0.97
2022-12-28T10:18:01.411Z,5.20
2022-12-28T10:20:30.998Z,5.93
2022-12-28T10:23:01.293Z,5.50
2022-12-28T10:25:30.873Z,9.30
2022-12-28T10:28:01.776Z,3.67
2022-12-28T10:30:31.350Z,2.80
2022-12-28T10:33:03.809Z,5.60
2022-12-28T10:35:38.278Z,4.33
2022-12-28T10:38:10.148Z,7.93
2022-12-28T10:40:40.498Z,7.90
2022-12-28T10:43:21.697Z,4.57
2022-12-28T10:45:53.463Z,6.50
2022-12-28T10:48:28.308Z,8.23
2022-12-28T10:50:59.874Z,6.60
2022-12-28T10:53:31.856Z,4.77
2022-12-28T10:56:07.970Z,3.47
2022-12-28T10:58:38.261Z,1.73
2022-12-28T11:01:18.733Z,6.07
2022-12-28T11:04:01.454Z,9.33
2022-12-28T11:06:32.080Z,4.80
2022-12-28T11:09:17.125Z,5.37
2022-12-28T11:11:48.851Z,4.53
2022-12-28T11:14:20.744Z,12.87
2022-12-28T11:16:49.817Z,8.53
2022-12-28T11:19:21.578Z,4.63
2022-12-28T11:21:51.929Z,6.50
2022-12-28T11:24:27.374Z,8.27
2022-12-28T11:26:58.158Z,10.93
2022-12-28T11:29:27.788Z,4.37
2022-12-28T11:32:02.071Z,14.13
2022-12-28T11:34:34.130Z,5.40
2022-12-28T11:37:03.849Z,13.37
2022-12-28T11:39:34.837Z,7.40
2022-12-28T11:42:38.355Z,7.77
2022-12-28T11:44:55.330Z,7.30
2022-12-28T11:47:36.158Z,7.63
2022-12-28T11:50:42.646Z,10.50
2022-12-28T11:53:54.873Z,5.37
2022-12-28T11:56:28.296Z,9.83
2022-12-28T11:59:22.369Z,4.40
2022-12-28T12:02:06.255Z,2.97
2022-12-28T12:04:40.405Z,10.00
2022-12-28T12:07:47.228Z,4.47
2022-12-28T12:10:42.848Z,10.63
2022-12-28T12:13:42.940Z,4.93
2022-12-28T12:16:24.198Z,7.73
2022-12-28T12:18:57.647Z,7.83
2022-12-28T12:21:32.699Z,6.53
2022-12-28T12:24:21.048Z,9.63
2022-12-28T12:26:56.503Z,5.87
2022-12-28T12:29:29.905Z,3.17
2022-12-28T12:32:06.016Z,6.63
2022-12-28T12:34:43.820Z,4.83
2022-12-28T12:37:38.939Z,4.80
2022-12-28T12:41:01.461Z,9.37
2022-12-28T12:43:40.624Z,4.17
2022-12-28T12:46:36.478Z,6.17
2022-12-28T12:49:39.383Z,3.17
2022-12-28T12:52:22.880Z,3.13
2022-12-28T12:55:01.445Z,4.60
2022-12-28T12:57:38.670Z,3.47
2022-12-28T13:00:20.411Z,7.23
2022-12-28T13:03:20.904Z,3.50
2022-12-28T13:05:54.491Z,3.03
2022-12-28T13:08:25.921Z,1.90
2022-12-28T13:10:55.843Z,4.10
2022-12-28T13:13:32.723Z,2.97
2022-12-28T13:16:05.552Z,5.00
2022-12-28T13:18:44.555Z,6.80
2022-12-28T13:21:22.625Z,4.10
2022-12-28T13:23:52.944Z,1.93
2022-12-28T13:26:29.098Z,1.53
2022-12-28T13:29:02.019Z,3.60
2022-12-28T13:31:37.484Z,6.07
2022-12-28T13:34:16.210Z,2.63
2022-12-28T13:36:49.735Z,5.63
2022-12-28T13:39:21.116Z,5.00
2022-12-28T13:41:52.658Z,2.77
2022-12-28T13:44:36.220Z,2.03
2022-12-28T13:47:13.219Z,2.53
2022-12-28T13:49:47.285Z,2.20
2022-12-28T13:52:20.574Z,1.90
2022-12-28T13:54:55.051Z,5.33
2022-12-28T14:00:20.976Z,4.70
2022-12-28T14:02:55.592Z,6.67
2022-12-28T14:05:28.009Z,9.73
2022-12-28T14:07:59.734Z,4.80
2022-12-28T14:10:29.900Z,6.33
2022-12-28T14:12:59.844Z,10.77
2022-12-28T14:15:29.171Z,3.67
2022-12-28T14:17:59.679Z,4.17
2022-12-28T14:20:28.548Z,2.13
2022-12-28T14:22:58.182Z,5.43
2022-12-28T14:25:27.899Z,10.37
2022-12-28T14:27:59.960Z,6.30
2022-12-28T14:30:34.467Z,6.70
2022-12-28T14:33:22.313Z,7.37
2022-12-28T14:35:56.054Z,9.93
2022-12-28T14:38:30.466Z,6.80
2022-12-28T14:41:03.120Z,6.53
2022-12-28T14:43:34.549Z,8.60
2022-12-28T14:46:18.118Z,7.07
2022-12-28T14:48:49.325Z,11.30
2022-12-28T14:51:44.087Z,9.83
2022-12-28T14:54:22.722Z,12.20
2022-12-28T14:56:56.968Z,11.97
2022-12-28T14:59:30.974Z,6.50
2022-12-28T15:02:00.754Z,10.70
2022-12-28T15:04:38.252Z,11.23
2022-12-28T15:07:09.327Z,14.23
2022-12-28T15:09:38.531Z,11.63
2022-12-28T15:12:14.543Z,7.97
2022-12-28T15:14:44.372Z,11.73
2022-12-28T15:17:13.664Z,11.63
2022-12-28T15:19:46.882Z,12.47
2022-12-28T15:22:16.231Z,13.50
2022-12-28T15:24:49.452Z,6.67
2022-12-28T15:27:18.404Z,10.13
2022-12-28T15:30:04.992Z,10.10
2022-12-28T15:32:35.688Z,12.87
2022-12-28T15:35:07.446Z,12.80
2022-12-28T15:37:36.591Z,11.00
2022-12-28T15:40:05.965Z,12.73
2022-12-28T15:42:40.370Z,22.93
2022-12-28T15:45:10.934Z,12.20
2022-12-28T15:47:39.879Z,11.97
2022-12-28T15:50:12.266Z,11.40
2022-12-28T15:52:41.415Z,9.83
2022-12-28T15:55:10.770Z,11.63
2022-12-28T15:57:39.681Z,17.53
2022-12-28T16:00:09.838Z,13.80
2022-12-28T16:02:39.337Z,14.00
2022-12-28T16:05:08.837Z,7.40
2022-12-28T16:07:39.701Z,9.90
2022-12-28T16:10:09.015Z,7.73
2022-12-28T16:12:39.835Z,10.77
2022-12-28T16:15:10.596Z,14.63
2022-12-28T16:17:47.032Z,7.77
2022-12-28T16:20:20.730Z,13.30
2022-12-28T16:22:51.762Z,9.57
2022-12-28T16:25:21.461Z,13.13
2022-12-28T16:27:51.332Z,12.33
2022-12-28T16:30:20.670Z,12.17
2022-12-28T16:32:52.471Z,15.33
2022-12-28T16:35:22.838Z,19.10
2022-12-28T16:37:55.402Z,13.07
2022-12-28T16:40:24.793Z,17.13
2022-12-28T16:42:53.983Z,12.90
2022-12-28T16:45:23.299Z,14.80
2022-12-28T16:47:52.782Z,10.53
2022-12-28T16:50:22.253Z,9.03
2022-12-28T16:52:51.711Z,15.37
2022-12-28T16:55:23.143Z,9.13
2022-12-28T16:57:52.554Z,9.90
2022-12-28T17:00:22.216Z,13.87
2022-12-28T17:02:51.861Z,16.27
2022-12-28T17:05:22.200Z,19.10
2022-12-28T17:07:51.574Z,34.00
2022-12-28T17:10:20.958Z,23.10
2022-12-28T17:12:52.139Z,20.40
2022-12-28T17:15:21.586Z,17.93
2022-12-28T17:17:51.322Z,16.97
2022-12-28T17:20:20.372Z,23.30
2022-12-28T17:22:49.852Z,18.97
2022-12-28T17:25:19.703Z,21.57
2022-12-28T17:27:49.343Z,25.03
2022-12-28T17:30:20.397Z,24.10
2022-12-28T17:32:49.613Z,28.40
2022-12-28T17:35:19.192Z,15.97
2022-12-28T17:37:49.243Z,14.37
2022-12-28T17:40:18.610Z,9.80
2022-12-28T17:42:48.035Z,8.00
2022-12-28T17:45:17.561Z,10.20
2022-12-28T17:47:48.393Z,10.90
2022-12-28T17:50:18.505Z,15.83
2022-12-28T17:52:47.512Z,10.10
2022-12-28T17:55:16.794Z,9.77
2022-12-28T17:57:46.089Z,9.13
2022-12-28T18:00:18.687Z,7.93
2022-12-28T18:02:51.454Z,10.53
2022-12-28T18:05:20.801Z,7.90
2022-12-28T18:07:49.799Z,9.17
2022-12-28T18:10:19.133Z,11.13
2022-12-28T18:12:48.199Z,14.90
2022-12-28T18:15:18.306Z,12.63
2022-12-28T18:17:47.781Z,11.73
2022-12-28T18:20:18.556Z,16.73
2022-12-28T18:22:48.397Z,22.33
2022-12-28T18:25:17.370Z,22.23
2022-12-28T18:27:46.912Z,27.77
2022-12-28T18:30:16.147Z,16.27
2022-12-28T18:32:45.695Z,14.30
2022-12-28T18:35:15.150Z,16.93
2022-12-28T18:37:46.313Z,14.30
2022-12-28T18:40:16.856Z,17.27
2022-12-28T18:42:45.876Z,24.03
2022-12-28T18:45:14.926Z,27.40
2022-12-28T18:47:44.184Z,16.03
2022-12-28T18:50:14.279Z,17.33
2022-12-28T18:52:43.967Z,16.47
2022-12-28T18:55:15.063Z,17.50
2022-12-28T18:57:44.770Z,14.40
2022-12-28T19:00:16.085Z,15.47
2022-12-28T19:02:47.641Z,15.77
2022-12-28T19:05:17.683Z,23.87
2022-12-28T19:07:49.456Z,19.10
2022-12-28T19:10:21.887Z,27.90
2022-12-28T19:12:51.299Z,23.83
2022-12-28T19:15:20.829Z,32.40
2022-12-28T19:17:49.901Z,31.27
2022-12-28T19:20:19.355Z,28.80
2022-12-28T19:22:48.791Z,19.20
2022-12-28T19:25:18.173Z,23.47
2022-12-28T19:27:49.563Z,19.27
2022-12-28T19:30:19.757Z,17.00
2022-12-28T19:32:50.209Z,12.07
2022-12-28T19:35:22.816Z,12.93
2022-12-28T19:37:52.777Z,14.13
2022-12-28T19:40:24.585Z,17.70
2022-12-28T19:42:55.800Z,18.27
2022-12-28T19:45:25.172Z,18.20
2022-12-28T19:47:54.846Z,15.23
2022-12-28T19:50:24.830Z,14.23
2022-12-28T19:52:54.811Z,12.60
2022-12-28T19:55:24.377Z,15.17
2022-12-28T19:57:55.625Z,15.20
2022-12-28T20:00:25.061Z,12.57
2022-12-28T20:02:54.508Z,15.53
2022-12-28T20:05:24.388Z,11.43
2022-12-28T20:07:53.762Z,10.13
2022-12-28T20:10:23.249Z,9.27
2022-12-28T20:12:52.754Z,12.13
2022-12-28T20:15:23.715Z,12.17
2022-12-28T20:17:53.542Z,13.97
2022-12-28T20:20:27.003Z,14.10
2022-12-28T20:22:58.394Z,11.30
2022-12-28T20:25:27.894Z,11.27
2022-12-28T20:27:57.253Z,13.50
2022-12-28T20:30:27.492Z,14.87
2022-12-28T20:32:57.137Z,17.17
2022-12-28T20:35:27.052Z,11.52
2022-12-28T20:37:56.671Z,12.53
2022-12-28T20:40:26.227Z,8.03
2022-12-28T20:43:12.820Z,11.07
2022-12-28T20:45:46.952Z,7.00
2022-12-28T20:48:18.956Z,10.77
2022-12-28T20:50:49.961Z,8.97
2022-12-28T20:53:19.101Z,11.50
2022-12-28T20:55:48.441Z,12.73
2022-12-28T20:58:18.119Z,8.43
2022-12-28T21:00:49.259Z,9.03
2022-12-28T21:03:18.633Z,11.50
2022-12-28T21:05:47.595Z,9.73
2022-12-28T21:08:16.806Z,8.30
2022-12-28T21:10:48.780Z,7.67
2022-12-28T21:13:18.238Z,9.57
2022-12-28T21:15:48.781Z,10.17
2022-12-28T21:18:19.401Z,8.07
2022-12-28T21:20:48.652Z,9.03
2022-12-28T21:23:18.065Z,14.45
2022-12-28T21:25:47.230Z,10.23
2022-12-28T21:28:16.140Z,13.03
2022-12-28T21:30:45.120Z,13.67
2022-12-28T21:33:18.082Z,10.90
2022-12-28T21:35:47.043Z,9.23
2022-12-28T21:38:16.110Z,11.30
2022-12-28T21:40:45.108Z,9.30
2022-12-28T21:43:13.949Z,12.37
2022-12-28T21:45:43.619Z,14.13
2022-12-28T21:48:12.815Z,11.47
2022-12-28T21:50:43.238Z,9.93
2022-12-28T21:53:13.380Z,6.93
2022-12-28T21:55:46.329Z,6.53
2022-12-28T21:58:15.590Z,10.67
2022-12-28T22:01:02.401Z,6.53
2022-12-28T22:03:49.023Z,9.67
2022-12-28T22:06:19.913Z,9.60
2022-12-28T22:09:06.485Z,9.97
2022-12-28T22:11:53.015Z,15.17
2022-12-28T22:14:22.388Z,7.90
2022-12-28T22:16:51.470Z,10.93
2022-12-28T22:19:20.532Z,6.50
2022-12-28T22:21:50.889Z,6.40
2022-12-28T22:24:20.142Z,8.93
2022-12-28T22:26:49.071Z,4.50
2022-12-28T22:29:18.361Z,8.00
2022-12-28T22:31:47.379Z,5.63
2022-12-28T22:34:16.280Z,7.73
2022-12-28T22:36:45.126Z,9.53
2022-12-28T22:39:15.505Z,10.30
2022-12-28T22:41:44.815Z,7.17
2022-12-28T22:44:14.219Z,6.67
2022-12-28T22:46:43.066Z,7.97
2022-12-28T22:49:12.236Z,9.73
2022-12-28T22:51:41.550Z,7.30
2022-12-28T22:54:10.757Z,7.43
2022-12-28T22:56:41.220Z,5.50
2022-12-28T22:59:15.443Z,6.67
2022-12-28T23:01:45.393Z,10.10
2022-12-28T23:04:14.629Z,5.30
2022-12-28T23:06:44.111Z,12.00
2022-12-28T23:09:13.376Z,7.77
2022-12-28T23:11:44.000Z,9.83
2022-12-28T23:14:32.870Z,7.03
2022-12-28T23:17:02.453Z,4.80
2022-12-28T23:19:49.086Z,5.10
2022-12-28T23:22:37.667Z,5.50
2022-12-28T23:25:24.840Z,6.40
2022-12-28T23:27:55.897Z,6.67
2022-12-28T23:30:25.273Z,4.07
2022-12-28T23:32:54.326Z,6.93
2022-12-28T23:35:26.561Z,6.07
2022-12-28T23:37:56.022Z,6.27
2022-12-28T23:40:25.566Z,4.20
2022-12-28T23:42:56.926Z,6.93
2022-12-28T23:45:26.297Z,5.07
2022-12-28T23:47:56.310Z,5.13
2022-12-28T23:50:25.260Z,4.33
2022-12-28T23:52:54.100Z,5.70
2022-12-28T23:55:23.214Z,7.23
2022-12-28T23:57:52.448Z,5.70
